createdAt,value
2023-11-05T00:03:01.166Z,76.22852
2023-11-05T00:05:00.989Z,76.15234
2023-11-05T00:07:00.994Z,76.18066
2023-11-05T00:09:00.880Z,76.09375
2023-11-05T00:11:01.152Z,76
2023-11-05T00:13:00.975Z,76.05371
2023-11-05T00:15:00.948Z,76.06445
2023-11-05T00:17:45.844Z,76.22852
2023-11-05T00:19:46.012Z,76.08301
2023-11-05T00:21:45.827Z,76.14551
2023-11-05T00:23:46.004Z,76.31348
2023-11-05T00:25:46.095Z,76.3623
2023-11-05T00:27:46.010Z,76.71973
2023-11-05T00:29:46.051Z,76.81836
2023-11-05T00:33:10.004Z,76.8252
2023-11-05T00:35:09.748Z,77.1123
2023-11-05T00:37:09.696Z,76.94336
2023-11-05T00:39:10.023Z,76.88574
2023-11-05T00:41:10.020Z,76.95117
2023-11-05T00:43:10.103Z,76.97949
2023-11-05T00:45:09.698Z,76.62305
2023-11-05T00:48:34.083Z,76.41602
2023-11-05T00:50:33.900Z,75.75195
2023-11-05T00:52:33.878Z,75.99121
2023-11-05T00:54:34.100Z,75.12109
2023-11-05T00:56:33.876Z,75.15527
2023-11-05T00:58:34.051Z,75.04102
2023-11-05T01:00:33.939Z,74.04883
2023-11-05T01:03:49.175Z,74.9209
2023-11-05T01:05:48.840Z,74.08984
2023-11-05T01:07:48.737Z,74.0752
2023-11-05T01:09:48.963Z,72.67773
2023-11-05T01:11:48.789Z,73.80469
2023-11-05T01:13:48.693Z,73.50879
2023-11-05T01:15:48.778Z,73.78711
2023-11-05T01:18:15.722Z,73.63965
2023-11-05T01:20:15.649Z,74.01758
2023-11-05T01:22:15.951Z,73.25098
2023-11-05T01:24:15.656Z,73.32813
2023-11-05T01:26:15.823Z,73.16797
2023-11-05T01:28:16.088Z,72.33301
2023-11-05T01:30:15.700Z,72.80859
2023-11-05T01:33:43.752Z,72.58691
2023-11-05T01:35:43.596Z,72.67773
2023-11-05T01:37:43.597Z,73.09766
2023-11-05T01:39:43.537Z,72.55273
2023-11-05T01:41:43.656Z,73.40723
2023-11-05T01:43:43.546Z,73.10352
2023-11-05T01:45:43.785Z,73.03613
2023-11-05T01:48:56.299Z,72.7832
2023-11-05T01:50:56.397Z,72.51563
2023-11-05T01:52:56.945Z,73.00195
2023-11-05T01:54:56.473Z,72.75684
2023-11-05T01:56:56.672Z,72.32813
2023-11-05T01:58:56.287Z,72.35547
2023-11-05T02:00:56.455Z,72.32422
2023-11-05T02:03:48.040Z,72.07813
2023-11-05T02:05:47.861Z,72.53027
2023-11-05T02:07:47.482Z,72.01172
2023-11-05T02:09:47.541Z,72.07422
2023-11-05T02:11:47.694Z,71.7207
2023-11-05T02:13:47.785Z,71.62305
2023-11-05T02:15:47.546Z,71.7168
2023-11-05T02:18:48.257Z,71.90234
2023-11-05T02:20:48.402Z,71.96973
2023-11-05T02:22:48.220Z,71.72852
2023-11-05T02:24:48.205Z,71.69238
2023-11-05T02:26:48.297Z,71.73828
2023-11-05T02:28:48.242Z,72.05762
2023-11-05T02:30:48.185Z,71.62793
2023-11-05T02:32:48.270Z,71.82422
2023-11-05T02:34:03.677Z,72.50488
2023-11-05T02:36:03.324Z,72.02344
2023-11-05T02:38:03.318Z,71.96973
2023-11-05T02:40:03.509Z,71.94824
2023-11-05T02:42:03.398Z,71.92285
2023-11-05T02:44:04.638Z,72.13867
2023-11-05T02:46:03.711Z,72.33789
2023-11-05T02:48:03.374Z,72.60352
2023-11-05T02:50:03.323Z,72.23633
2023-11-05T02:52:03.726Z,71.77344
2023-11-05T02:54:03.168Z,72.07227
2023-11-05T02:56:03.198Z,72.08789
2023-11-05T02:58:03.401Z,71.70313
2023-11-05T03:00:03.256Z,72.01172
2023-11-05T03:02:03.337Z,71.76367
2023-11-05T03:04:23.617Z,71.86133
2023-11-05T03:06:23.621Z,72.01953
2023-11-05T03:08:23.479Z,72.13867
2023-11-05T03:10:23.418Z,72.05957
2023-11-05T03:12:23.482Z,72.30273
2023-11-05T03:14:23.495Z,71.4873
2023-11-05T03:16:23.568Z,70.95996
2023-11-05T03:18:23.507Z,70.46484
2023-11-05T03:19:44.759Z,70.8291
2023-11-05T03:21:44.406Z,70.74023
2023-11-05T03:23:44.415Z,70.86816
2023-11-05T03:25:44.371Z,70.56055
2023-11-05T03:27:44.359Z,70.06543
2023-11-05T03:29:44.789Z,70.41406
2023-11-05T03:31:44.499Z,70.74219
2023-11-05T03:35:01.769Z,69.41895
2023-11-05T03:37:01.803Z,69.65527
2023-11-05T03:39:01.776Z,69.81543
2023-11-05T03:41:01.774Z,69.61719
2023-11-05T03:43:01.762Z,70.32227
2023-11-05T03:45:01.887Z,69.94629
2023-11-05T03:47:01.890Z,69.28027
2023-11-05T03:50:07.151Z,70.19434
2023-11-05T03:52:07.217Z,70.09766
2023-11-05T03:54:07.360Z,69.19238
2023-11-05T03:56:07.424Z,68.69238
2023-11-05T03:58:07.396Z,68.56934
2023-11-05T04:00:07.172Z,69.0791
2023-11-05T04:02:07.126Z,69.06445
2023-11-05T04:05:48.409Z,69.04785
2023-11-05T04:07:48.373Z,69.02148
2023-11-05T04:09:48.320Z,69.78125
2023-11-05T04:11:48.228Z,69.3457
2023-11-05T04:13:48.355Z,69.49512
2023-11-05T04:15:48.264Z,69.53125
2023-11-05T04:17:50.602Z,70.0625
2023-11-05T04:21:01.245Z,70.52148
2023-11-05T04:23:01.183Z,70.10352
2023-11-05T04:25:01.290Z,69.4209
2023-11-05T04:27:01.304Z,69.44336
2023-11-05T04:29:01.081Z,69.3584
2023-11-05T04:31:01.284Z,68.56445
2023-11-05T04:33:01.616Z,68.69922
2023-11-05T04:35:38.617Z,67.75586
2023-11-05T04:37:39.036Z,67.45117
2023-11-05T04:39:38.697Z,68.10352
2023-11-05T04:41:38.642Z,67.73535
2023-11-05T04:43:38.694Z,68.08398
2023-11-05T04:45:38.698Z,67.6709
2023-11-05T04:47:38.722Z,67.90234
2023-11-05T04:50:41.847Z,67.75781
2023-11-05T04:52:41.771Z,68.71191
2023-11-05T04:54:41.776Z,68.57324
2023-11-05T04:56:41.789Z,68.43848
2023-11-05T04:58:41.803Z,68.14453
2023-11-05T05:00:41.675Z,68.27344
2023-11-05T05:02:41.957Z,67.79688
2023-11-05T05:06:29.317Z,67.61621
2023-11-05T05:08:29.776Z,67.51953
2023-11-05T05:10:29.374Z,67.55566
2023-11-05T05:12:29.273Z,67.33301
2023-11-05T05:14:29.511Z,66.76074
2023-11-05T05:16:29.442Z,66.58496
2023-11-05T05:18:29.338Z,66.15234
2023-11-05T05:21:06.186Z,66.18359
2023-11-05T05:23:04.804Z,65.7998
2023-11-05T05:25:04.865Z,65.51367
2023-11-05T05:27:04.852Z,65.43555
2023-11-05T05:29:04.745Z,66.19531
2023-11-05T05:31:04.807Z,66.04492
2023-11-05T05:33:05.002Z,65.76855
2023-11-05T05:36:33.696Z,65.79102
2023-11-05T05:38:34.078Z,65.68652
2023-11-05T05:40:33.752Z,65.07617
2023-11-05T05:42:33.699Z,65.50977
2023-11-05T05:44:33.838Z,65.00488
2023-11-05T05:46:33.811Z,66.05371
2023-11-05T05:48:33.839Z,65.18457
2023-11-05T05:51:08.944Z,65.83594
2023-11-05T05:53:08.775Z,65.63965
2023-11-05T05:55:08.868Z,65.62402
2023-11-05T05:57:08.802Z,65.78027
2023-11-05T05:59:08.816Z,64.83691
2023-11-05T06:01:08.944Z,65.34277
2023-11-05T06:03:08.865Z,65.11426
2023-11-05T06:05:08.833Z,64.93652
2023-11-05T06:06:55.145Z,65.00098
2023-11-05T06:08:55.299Z,65.00684
2023-11-05T06:10:55.150Z,64.20996
2023-11-05T06:12:55.242Z,64.26563
2023-11-05T06:15:08.562Z,64.08887
2023-11-05T06:16:55.113Z,63.38574
2023-11-05T06:18:55.074Z,62.66602
2023-11-05T06:21:56.015Z,62.36426
2023-11-05T06:23:55.617Z,63.24609
2023-11-05T06:25:55.703Z,62.37891
2023-11-05T06:27:55.817Z,62.82324
2023-11-05T06:29:55.737Z,63.16113
2023-11-05T06:31:55.672Z,62.66016
2023-11-05T06:33:55.862Z,62.08301
2023-11-05T06:36:41.447Z,61.7666
2023-11-05T06:38:42.499Z,59.69922
2023-11-05T06:40:41.569Z,60.0957
2023-11-05T06:42:41.401Z,60.41016
2023-11-05T06:44:41.377Z,60.23145
2023-11-05T06:46:41.485Z,58.9043
2023-11-05T06:48:41.807Z,59.27832
2023-11-05T06:50:41.410Z,58.48047
2023-11-05T06:52:03.328Z,58.28027
2023-11-05T06:54:03.502Z,57.48535
2023-11-05T06:56:03.247Z,59.44629
2023-11-05T06:58:03.219Z,58.54102
2023-11-05T07:00:03.257Z,58.5166
2023-11-05T07:02:03.245Z,58.42773
2023-11-05T07:04:03.384Z,57.34668
2023-11-05T07:07:31.994Z,57.53223
2023-11-05T07:09:31.895Z,57.46094
2023-11-05T07:11:31.886Z,56.77148
2023-11-05T07:13:32.054Z,56.64355
2023-11-05T07:15:32.055Z,56.63184
2023-11-05T07:17:31.991Z,56.51172
2023-11-05T07:19:32.132Z,55.99512
2023-11-05T07:23:02.408Z,56.63379
2023-11-05T07:25:02.532Z,55.93555
2023-11-05T07:27:02.451Z,55.48535
2023-11-05T07:29:02.474Z,55.27148
2023-11-05T07:31:02.464Z,53.98047
2023-11-05T07:33:02.474Z,54.88086
2023-11-05T07:35:02.521Z,54.57129
2023-11-05T07:38:01.215Z,54.26563
2023-11-05T07:40:01.042Z,53.92969
2023-11-05T07:42:01.121Z,53.36816
2023-11-05T07:44:01.466Z,54.66211
2023-11-05T07:46:01.165Z,54.31934
2023-11-05T07:48:01.629Z,52.4541
2023-11-05T07:50:01.261Z,53.71191
2023-11-05T07:52:31.095Z,50.87012
2023-11-05T07:54:31.056Z,52.08984
2023-11-05T07:56:31.131Z,51.56836
2023-11-05T07:58:31.072Z,50.61816
2023-11-05T08:00:31.137Z,51.41504
2023-11-05T08:02:31.201Z,52.15625
2023-11-05T08:04:30.989Z,50.28418
2023-11-05T08:06:31.060Z,51.60059
2023-11-05T08:08:11.220Z,51.05957
2023-11-05T08:10:11.064Z,49.77051
2023-11-05T08:12:11.043Z,51.80371
2023-11-05T08:14:11.045Z,51.03418
2023-11-05T08:16:11.036Z,50.16504
2023-11-05T08:18:11.158Z,50.2793
2023-11-05T08:20:11.021Z,51.14063
2023-11-05T08:22:58.952Z,50.07715
2023-11-05T08:24:58.839Z,49.54785
2023-11-05T08:26:58.794Z,48.72852
2023-11-05T08:28:59.453Z,50.37695
2023-11-05T08:30:59.422Z,49.63086
2023-11-05T08:32:59.127Z,48.0791
2023-11-05T08:34:59.091Z,48.8291
2023-11-05T08:38:37.481Z,48.16602
2023-11-05T08:40:38.023Z,47.90039
2023-11-05T08:42:37.436Z,48.53809
2023-11-05T08:44:37.542Z,47.41309
2023-11-05T08:46:37.849Z,47.5498
2023-11-05T08:48:37.669Z,47.74902
2023-11-05T08:50:37.495Z,48.01172
2023-11-05T08:53:18.249Z,47.3457
2023-11-05T08:55:18.250Z,47.36035
2023-11-05T08:57:18.099Z,46.17188
2023-11-05T08:59:18.611Z,47.42383
2023-11-05T09:01:18.420Z,45.76953
2023-11-05T09:03:18.348Z,45.69629
2023-11-05T09:05:18.380Z,47.19141
2023-11-05T09:08:49.084Z,46.78027
2023-11-05T09:10:49.122Z,46.80859
2023-11-05T09:12:48.996Z,45.44043
2023-11-05T09:14:49.036Z,46.42383
2023-11-05T09:16:49.494Z,45.2168
2023-11-05T09:18:50.163Z,45.43848
2023-11-05T09:20:49.361Z,45.56445
2023-11-05T09:24:19.122Z,45.69336
2023-11-05T09:26:18.862Z,46.14355
2023-11-05T09:28:18.971Z,46.06836
2023-11-05T09:30:18.896Z,45.71289
2023-11-05T09:32:19.002Z,45.34277
2023-11-05T09:34:19.063Z,42.8252
2023-11-05T09:36:19.094Z,44.44727
2023-11-05T09:38:42.869Z,43.25586
2023-11-05T09:40:42.953Z,43.51367
2023-11-05T09:42:42.916Z,44.93457
2023-11-05T09:44:43.029Z,44.71387
2023-11-05T09:46:43.118Z,43.3457
2023-11-05T09:48:42.939Z,43.54004
2023-11-05T09:50:43.006Z,43.93359
2023-11-05T09:52:43.241Z,44.69043
2023-11-05T09:54:29.512Z,46.95605
2023-11-05T09:56:29.667Z,46.58008
2023-11-05T09:58:29.645Z,46.08203
2023-11-05T10:00:29.587Z,45.11816
2023-11-05T10:02:29.414Z,45.45605
2023-11-05T10:04:29.908Z,47.64648
2023-11-05T10:06:29.548Z,46.02832
2023-11-05T10:09:24.136Z,48.16504
2023-11-05T10:11:23.914Z,46.20605
2023-11-05T10:13:24.037Z,45.17285
2023-11-05T10:15:23.954Z,44.46777
2023-11-05T10:17:24.288Z,47.13672
2023-11-05T10:19:24.067Z,48.17578
2023-11-05T10:21:24.186Z,44.46875
2023-11-05T10:24:28.643Z,45.79004
2023-11-05T10:26:28.549Z,44.58789
2023-11-05T10:28:28.597Z,45.30957
2023-11-05T10:30:28.500Z,44.81543
2023-11-05T10:32:28.405Z,45.83789
2023-11-05T10:34:28.328Z,45.53809
2023-11-05T10:36:28.772Z,46.29004
2023-11-05T10:40:04.277Z,44.99512
2023-11-05T10:42:04.320Z,45.06445
2023-11-05T10:44:04.549Z,44.60449
2023-11-05T10:46:04.194Z,43.58496
2023-11-05T10:48:04.577Z,44.38867
2023-11-05T10:50:04.101Z,45.20801
2023-11-05T10:52:04.042Z,44.24902
2023-11-05T10:54:48.530Z,42.43066
2023-11-05T10:56:48.503Z,43.32324
2023-11-05T10:58:50.154Z,40.46289
2023-11-05T11:00:48.634Z,41.09668
2023-11-05T11:02:56.013Z,42.72168
2023-11-05T11:04:48.837Z,40.91406
2023-11-05T11:06:48.488Z,40.22949
2023-11-05T11:10:28.185Z,41.0957
2023-11-05T11:12:27.985Z,39.81543
2023-11-05T11:14:27.886Z,40.61719
2023-11-05T11:16:28.147Z,40.56836
2023-11-05T11:18:28.148Z,39.96484
2023-11-05T11:20:27.879Z,40.73438
2023-11-05T11:22:28.112Z,41.0918
2023-11-05T11:25:00.522Z,39.90625
2023-11-05T11:27:05.137Z,40.69922
2023-11-05T11:29:00.846Z,40.76758
2023-11-05T11:31:00.843Z,40.33301
2023-11-05T11:33:00.703Z,40.64941
2023-11-05T11:35:00.896Z,41.34961
2023-11-05T11:37:00.695Z,40.93945
2023-11-05T11:40:41.769Z,40.79004
2023-11-05T11:42:41.458Z,40.56738
2023-11-05T11:44:41.536Z,41.3291
2023-11-05T11:46:41.573Z,41.05664
2023-11-05T11:48:41.457Z,41.96582
2023-11-05T11:50:41.670Z,41.68359
2023-11-05T11:52:41.708Z,42.01563
2023-11-05T11:55:41.960Z,41.81543
2023-11-05T11:57:42.244Z,41.26953
2023-11-05T11:59:42.028Z,41.71484
2023-11-05T12:01:42.358Z,43.19238
2023-11-05T12:03:42.439Z,42.42578
2023-11-05T12:05:42.233Z,42.71094
2023-11-05T12:07:42.160Z,42.63477
2023-11-05T12:11:13.369Z,42.91797
2023-11-05T12:13:13.209Z,42.94922
2023-11-05T12:15:13.465Z,43.52148
2023-11-05T12:17:13.324Z,43.34082
2023-11-05T12:19:13.312Z,44.11035
2023-11-05T12:21:13.384Z,43.96484
2023-11-05T12:23:13.313Z,44.16113
2023-11-05T12:25:41.489Z,44.04785
2023-11-05T12:27:41.571Z,44.19141
2023-11-05T12:29:41.414Z,43.55371
2023-11-05T12:31:41.560Z,43.58105
2023-11-05T12:33:41.833Z,43.08789
2023-11-05T12:35:41.629Z,42.7832
2023-11-05T12:37:41.392Z,43.9668
2023-11-05T12:40:47.592Z,44.22168
2023-11-05T12:42:43.066Z,43.55957
2023-11-05T12:44:43.016Z,42.96387
2023-11-05T12:46:43.113Z,43.77637
2023-11-05T12:48:43.142Z,43.96289
2023-11-05T12:50:43.065Z,44.18945
2023-11-05T12:52:43.319Z,44.63477
2023-11-05T12:54:43.030Z,44.20898
2023-11-05T12:56:25.254Z,44.08691
2023-11-05T12:58:25.470Z,44.31836
2023-11-05T13:00:25.353Z,44.97363
2023-11-05T13:02:25.779Z,44.84277
2023-11-05T13:04:25.886Z,45.9209
2023-11-05T13:06:25.394Z,45.21973
2023-11-05T13:08:25.224Z,45.92676
2023-11-05T13:11:24.200Z,45.33203
2023-11-05T13:13:24.102Z,46.32324
2023-11-05T13:15:24.012Z,46.31543
2023-11-05T13:17:24.425Z,46.7832
2023-11-05T13:19:23.977Z,46.71777
2023-11-05T13:21:24.078Z,46.5791
2023-11-05T13:23:24.188Z,46.80664
2023-11-05T13:26:44.937Z,48.05371
2023-11-05T13:28:45.047Z,47.02832
2023-11-05T13:30:44.938Z,47.61426
2023-11-05T13:32:45.123Z,47.36523
2023-11-05T13:34:45.131Z,47.9082
2023-11-05T13:36:44.932Z,47.71094
2023-11-05T13:38:45.173Z,48.34473
2023-11-05T13:41:53.473Z,48.23535
2023-11-05T13:43:53.515Z,48.47168
2023-11-05T13:45:53.377Z,48.84863
2023-11-05T13:47:53.559Z,49.30078
2023-11-05T13:49:53.649Z,49.42773
2023-11-05T13:51:53.366Z,49.30176
2023-11-05T13:53:53.289Z,49.20801
2023-11-05T13:57:01.689Z,49.7168
2023-11-05T13:59:01.220Z,48.95508
2023-11-05T14:01:00.981Z,49.23145
2023-11-05T14:03:01.265Z,49.60742
2023-11-05T14:05:01.067Z,49.47559
2023-11-05T14:07:01.040Z,50.10156
2023-11-05T14:09:01.213Z,49.75879
2023-11-05T14:12:14.682Z,49.59668
2023-11-05T14:14:14.973Z,49.74902
2023-11-05T14:16:18.258Z,49.96973
2023-11-05T14:18:14.953Z,50.16797
2023-11-05T14:20:15.006Z,50.75195
2023-11-05T14:22:14.685Z,50.38672
2023-11-05T14:24:14.643Z,50.60645
2023-11-05T14:27:38.998Z,51.14453
2023-11-05T14:29:38.854Z,50.74805
2023-11-05T14:31:39.045Z,50.52539
2023-11-05T14:33:39.169Z,52.54688
2023-11-05T14:35:38.992Z,52.2832
2023-11-05T14:37:38.949Z,51.70996
2023-11-05T14:39:38.921Z,51.17285
2023-11-05T14:42:10.923Z,51.56641
2023-11-05T14:44:10.891Z,52.46875
2023-11-05T14:46:11.039Z,51.65723
2023-11-05T14:48:11.158Z,51.40918
2023-11-05T14:50:10.921Z,51.85938
2023-11-05T14:52:11.317Z,51.93066
2023-11-05T14:54:10.888Z,51.81934
2023-11-05T14:57:41.279Z,52.34082
2023-11-05T14:59:40.676Z,51.86523
2023-11-05T15:01:40.724Z,52.61719
2023-11-05T15:03:40.998Z,52.99512
2023-11-05T15:05:40.872Z,53.65039
2023-11-05T15:07:40.687Z,53.27539
2023-11-05T15:09:40.918Z,53.06055
2023-11-05T15:13:07.452Z,53.48145
2023-11-05T15:15:07.511Z,53.31348
2023-11-05T15:17:07.414Z,53.23242
2023-11-05T15:19:07.565Z,53.89746
2023-11-05T15:21:07.349Z,53.37109
2023-11-05T15:23:07.570Z,53.86719
2023-11-05T15:25:07.344Z,53.95215
2023-11-05T15:27:43.150Z,53.98828
2023-11-05T15:29:43.210Z,54.3457
2023-11-05T15:31:43.418Z,54.79102
2023-11-05T15:33:43.184Z,54.45898
2023-11-05T15:35:43.228Z,54.86328
2023-11-05T15:37:43.769Z,55.28906
2023-11-05T15:39:43.216Z,55.52832
2023-11-05T15:43:30.658Z,55.38086
2023-11-05T15:45:30.536Z,55.08203
2023-11-05T15:47:30.531Z,54.97852
2023-11-05T15:49:30.608Z,55.16895
2023-11-05T15:51:30.496Z,54.72754
2023-11-05T15:53:30.677Z,55.36133
2023-11-05T15:55:30.902Z,55.36719
2023-11-05T15:58:31.983Z,55.80469
2023-11-05T16:00:31.781Z,55.61328
2023-11-05T16:02:31.830Z,56.13965
2023-11-05T16:04:31.877Z,56.68457
2023-11-05T16:06:31.932Z,55.67578
2023-11-05T16:08:31.767Z,55.69922
2023-11-05T16:10:32.010Z,56.47949
2023-11-05T16:13:27.744Z,56.58887
2023-11-05T16:15:27.415Z,56.75781
2023-11-05T16:17:27.427Z,56.33301
2023-11-05T16:19:27.750Z,56.02246
2023-11-05T16:21:27.400Z,56.2627
2023-11-05T16:23:27.296Z,57.42676
2023-11-05T16:25:27.648Z,57.14844
2023-11-05T16:29:07.622Z,56.99121
2023-11-05T16:31:07.930Z,57.23145
2023-11-05T16:33:07.738Z,57.08691
2023-11-05T16:35:07.540Z,56.66992
2023-11-05T16:37:07.643Z,57.32813
2023-11-05T16:39:07.678Z,57.08691
2023-11-05T16:41:07.502Z,57.19238
2023-11-05T16:44:08.098Z,57.7666
2023-11-05T16:46:08.030Z,57.54297
2023-11-05T16:48:08.135Z,57.2832
2023-11-05T16:50:08.381Z,57.54395
2023-11-05T16:52:08.076Z,57.59082
2023-11-05T16:54:08.197Z,57.65332
2023-11-05T16:56:08.260Z,57.75781
2023-11-05T16:58:59.680Z,57.47949
2023-11-05T17:00:59.624Z,57.82324
2023-11-05T17:02:59.903Z,57.56348
2023-11-05T17:04:59.902Z,58.38672
2023-11-05T17:06:59.592Z,57.83008
2023-11-05T17:08:59.854Z,58.6709
2023-11-05T17:10:59.794Z,57.92578
2023-11-05T17:14:23.901Z,58.14551
2023-11-05T17:16:23.374Z,58.3252
2023-11-05T17:18:23.980Z,58.37109
2023-11-05T17:20:24.133Z,58.05371
2023-11-05T17:22:23.615Z,57.90918
2023-11-05T17:24:23.659Z,58.44727
2023-11-05T17:26:23.737Z,58.44727
2023-11-05T17:29:20.480Z,58.5791
2023-11-05T17:31:20.637Z,58.30762
2023-11-05T17:33:20.897Z,58.08105
2023-11-05T17:35:20.630Z,58.19824
2023-11-05T17:37:20.559Z,57.86621
2023-11-05T17:39:20.868Z,57.83203
2023-11-05T17:41:20.428Z,58.22949
2023-11-05T17:44:29.847Z,58.0918
2023-11-05T17:46:28.981Z,58.31055
2023-11-05T17:48:28.992Z,58.37109
2023-11-05T17:50:29.113Z,58.73242
2023-11-05T17:52:28.762Z,58.78125
2023-11-05T17:54:31.425Z,59.23047
2023-11-05T17:56:33.359Z,59.52539
2023-11-05T17:59:41.457Z,59.38672
2023-11-05T18:01:41.464Z,59.35352
2023-11-05T18:03:41.310Z,59.4209
2023-11-05T18:05:41.552Z,59.33203
2023-11-05T18:07:41.684Z,59.49121
2023-11-05T18:09:41.189Z,59.12695
2023-11-05T18:11:41.242Z,59.58887
2023-11-05T18:14:56.537Z,59.04492
2023-11-05T18:16:56.492Z,58.94141
2023-11-05T18:18:56.314Z,58.66504
2023-11-05T18:20:58.602Z,58.67676
2023-11-05T18:22:56.482Z,58.71387
2023-11-05T18:24:56.889Z,59.1084
2023-11-05T18:26:57.152Z,59.06348
2023-11-05T18:29:42.704Z,59.20117
2023-11-05T18:31:42.927Z,58.8125
2023-11-05T18:33:42.949Z,58.91699
2023-11-05T18:35:42.673Z,58.79785
2023-11-05T18:37:43.009Z,59.12012
2023-11-05T18:39:42.932Z,59.23145
2023-11-05T18:41:42.856Z,59.00195
2023-11-05T18:45:11.265Z,58.90918
2023-11-05T18:47:10.954Z,59
2023-11-05T18:49:10.972Z,58.95215
2023-11-05T18:51:11.083Z,58.94727
2023-11-05T18:53:11.187Z,58.77832
2023-11-05T18:55:11.060Z,58.89551
2023-11-05T18:57:11.094Z,59.40723
2023-11-05T18:59:59.176Z,59.06348
2023-11-05T19:01:59.299Z,58.9873
2023-11-05T19:03:59.457Z,58.96582
2023-11-05T19:05:59.192Z,58.79883
2023-11-05T19:07:59.254Z,58.68945
2023-11-05T19:09:59.349Z,58.77637
2023-11-05T19:11:59.457Z,58.60742
2023-11-05T19:15:27.906Z,58.87305
2023-11-05T19:17:28.062Z,58.33008
2023-11-05T19:19:27.799Z,59.0293
2023-11-05T19:21:28.214Z,58.14063
2023-11-05T19:23:27.772Z,58.25195
2023-11-05T19:25:27.886Z,58.27832
2023-11-05T19:27:27.745Z,58.33887
2023-11-05T19:30:22.331Z,57.8291
2023-11-05T19:32:22.445Z,58.13281
2023-11-05T19:34:22.406Z,57.99414
2023-11-05T19:36:22.462Z,58.09473
2023-11-05T19:38:23.031Z,57.89648
2023-11-05T19:40:22.531Z,57.79004
2023-11-05T19:42:22.634Z,57.90723
2023-11-05T19:46:05.667Z,57.91992
2023-11-05T19:48:05.781Z,57.83008
2023-11-05T19:50:05.630Z,57.35059
2023-11-05T19:52:05.611Z,57.53223
2023-11-05T19:54:05.487Z,57.58301
2023-11-05T19:56:19.888Z,57.55957
2023-11-05T19:58:06.704Z,57.52441
2023-11-05T20:01:19.480Z,57.66797
2023-11-05T20:03:19.781Z,58.14453
2023-11-05T20:05:19.528Z,57.85352
2023-11-05T20:07:19.449Z,58.01367
2023-11-05T20:09:19.574Z,58.13379
2023-11-05T20:11:20.207Z,58.04199
2023-11-05T20:13:19.518Z,58.07813
2023-11-05T20:16:28.919Z,58.1377
2023-11-05T20:18:29.043Z,58.20215
2023-11-05T20:20:28.813Z,58.07813
2023-11-05T20:22:28.999Z,58.05176
2023-11-05T20:24:28.769Z,57.89258
2023-11-05T20:26:28.774Z,57.98242
2023-11-05T20:28:28.950Z,57.61621
2023-11-05T20:31:16.182Z,57.78516
2023-11-05T20:33:16.185Z,57.79492
2023-11-05T20:35:16.722Z,57.83105
2023-11-05T20:37:16.167Z,57.76465
2023-11-05T20:39:16.294Z,57.67285
2023-11-05T20:41:16.371Z,57.91504
2023-11-05T20:43:16.173Z,57.86816
2023-11-05T20:46:35.996Z,57.76172
2023-11-05T20:48:36.145Z,57.71094
2023-11-05T20:50:35.770Z,57.48926
2023-11-05T20:52:35.935Z,57.51953
2023-11-05T20:54:35.839Z,57.57227
2023-11-05T20:56:35.952Z,57.53809
2023-11-05T20:58:35.863Z,57.49707
2023-11-05T21:02:04.037Z,57.16895
2023-11-05T21:04:03.905Z,57.48633
2023-11-05T21:06:03.893Z,57.32227
2023-11-05T21:08:03.969Z,57.27637
2023-11-05T21:10:03.994Z,57.2373
2023-11-05T21:12:03.863Z,57.21191
2023-11-05T21:14:03.912Z,57.07617
2023-11-05T21:17:18.669Z,56.70117
2023-11-05T21:19:18.409Z,56.77832
2023-11-05T21:21:18.443Z,56.85254
2023-11-05T21:23:18.807Z,56.46973
2023-11-05T21:25:18.533Z,56.44238
2023-11-05T21:27:18.489Z,56.90137
2023-11-05T21:29:18.526Z,56.73145
2023-11-05T21:32:21.008Z,56.60352
2023-11-05T21:34:20.850Z,56.41211
2023-11-05T21:36:20.747Z,56.6543
2023-11-05T21:38:21.253Z,56.62988
2023-11-05T21:40:20.815Z,56.54688
2023-11-05T21:42:20.894Z,56.53613
2023-11-05T21:44:21.003Z,56.41797
2023-11-05T21:46:46.525Z,56.59668
2023-11-05T21:48:46.303Z,56.61523
2023-11-05T21:50:46.183Z,56.51953
2023-11-05T21:52:45.990Z,56.29492
2023-11-05T21:54:45.937Z,56.875
2023-11-05T21:56:45.992Z,56.89941
2023-11-05T21:58:46.016Z,56.85352
2023-11-05T22:00:46.294Z,57
2023-11-05T22:02:31.992Z,56.95313
2023-11-05T22:04:37.303Z,56.77637
2023-11-05T22:06:32.210Z,56.82227
2023-11-05T22:08:31.927Z,56.78223
2023-11-05T22:10:32.362Z,56.81445
2023-11-05T22:12:32.186Z,56.51465
2023-11-05T22:14:31.876Z,56.52539
2023-11-05T22:17:20.182Z,56.88672
2023-11-05T22:19:20.061Z,56.9668
2023-11-05T22:21:20.498Z,57.0918
2023-11-05T22:23:20.278Z,57.47266
2023-11-05T22:25:20.269Z,58.36914
2023-11-05T22:27:20.179Z,59.55469
2023-11-05T22:29:20.140Z,60.48145
2023-11-05T22:32:31.794Z,62.89453
2023-11-05T22:34:31.189Z,63.6748
2023-11-05T22:36:31.313Z,65.29102
2023-11-05T22:38:31.337Z,65.5166
2023-11-05T22:40:31.378Z,67.45117
2023-11-05T22:42:31.538Z,67.42578
2023-11-05T22:44:31.203Z,68.11035
2023-11-05T22:48:09.365Z,69.52148
2023-11-05T22:50:09.373Z,70.04688
2023-11-05T22:52:09.162Z,70.20508
2023-11-05T22:54:09.082Z,70.63867
2023-11-05T22:56:09.473Z,72.43066
2023-11-05T22:58:09.108Z,73.625
2023-11-05T23:00:09.070Z,73.80566
2023-11-05T23:03:28.746Z,74.62402
2023-11-05T23:05:28.637Z,74.0498
2023-11-05T23:07:28.510Z,74.91309
2023-11-05T23:09:29.313Z,75.75098
2023-11-05T23:11:28.369Z,75.86328
2023-11-05T23:13:28.544Z,74.625
2023-11-05T23:15:28.571Z,74.56641
2023-11-05T23:18:17.703Z,73.73926
2023-11-05T23:20:17.743Z,74.42676
2023-11-05T23:22:17.615Z,74.37891
2023-11-05T23:24:17.509Z,75.33203
2023-11-05T23:26:18.282Z,75.61328
2023-11-05T23:28:17.816Z,74.91797
2023-11-05T23:30:17.484Z,74.76563
2023-11-05T23:33:40.225Z,74.50488
2023-11-05T23:35:40.198Z,76.36719
2023-11-05T23:37:40.012Z,77.11035
2023-11-05T23:39:41.647Z,76.75684
2023-11-05T23:41:40.020Z,76.55371
2023-11-05T23:43:39.988Z,76.19141
2023-11-05T23:45:40.056Z,75.60254
2023-11-05T23:48:03.702Z,75.91113
2023-11-05T23:50:03.651Z,75.20215
2023-11-05T23:52:03.863Z,75.03516
2023-11-05T23:54:03.669Z,75.34766
2023-11-05T23:56:03.730Z,75.16309
2023-11-05T23:58:04.110Z,75.38281
